Time;durP1;ratioP1;P1;durP2;ratioP2;P2;SDS_P1;SDS_P2;PMS_P1;PMS_P2;Temp;Humidity;BMP_temperature;BMP_pressure;BME280_temperature;BME280_humidity;BME280_pressure;Samples;Min_cycle;Max_cycle;Signal;HPM_P1;HPM_P2
2022/11/26 00:02:09;;;;;;;5.53;2.20;;;10.10;89.70;;;;;;4873377;29;20511;-75
2022/11/26 00:04:39;;;;;;;3.10;2.60;;;10.00;89.60;;;;;;4881661;29;20474;-74
2022/11/26 00:07:10;;;;;;;2.80;1.53;;;10.00;89.50;;;;;;4867962;29;20467;-74
2022/11/26 00:09:39;;;;;;;6.33;1.70;;;10.10;89.70;;;;;;4878755;29;21144;-74
2022/11/26 00:12:17;;;;;;;3.47;2.87;;;10.10;89.70;;;;;;4866750;29;20463;-73
2022/11/26 00:14:46;;;;;;;4.10;2.27;;;10.00;89.60;;;;;;4869605;29;20474;-74
2022/11/26 00:17:15;;;;;;;1.67;1.37;;;10.00;89.60;;;;;;4873038;29;20466;-74
2022/11/26 00:19:46;;;;;;;2.47;1.60;;;10.00;89.50;;;;;;4875202;29;20475;-74
2022/11/26 00:22:23;;;;;;;2.73;1.70;;;10.10;89.70;;;;;;4865838;29;20491;-74
2022/11/26 00:24:53;;;;;;;3.70;2.00;;;10.00;89.50;;;;;;4879935;29;20648;-75
2022/11/26 00:27:24;;;;;;;2.33;1.57;;;10.00;89.70;;;;;;4879587;29;20554;-74
2022/11/26 00:29:53;;;;;;;4.13;2.07;;;10.00;89.50;;;;;;4869408;29;20503;-73
2022/11/26 00:32:24;;;;;;;3.17;2.07;;;10.00;89.40;;;;;;4871176;29;21090;-74
2022/11/26 00:34:54;;;;;;;2.60;1.60;;;10.00;89.40;;;;;;4872190;29;20534;-72
2022/11/26 00:37:27;;;;;;;2.60;1.83;;;10.00;89.40;;;;;;4871987;29;20463;-75
2022/11/26 00:39:57;;;;;;;2.80;1.70;;;10.00;89.40;;;;;;4874493;29;20534;-73
2022/11/26 00:42:25;;;;;;;2.53;1.40;;;10.00;89.50;;;;;;4876614;29;21014;-74
2022/11/26 00:44:54;;;;;;;2.40;1.73;;;10.00;89.40;;;;;;4886209;29;20820;-73
2022/11/26 00:47:22;;;;;;;2.37;2.00;;;10.00;89.20;;;;;;4878952;29;20880;-74
2022/11/26 00:49:51;;;;;;;2.23;2.03;;;10.00;89.40;;;;;;4871586;29;20755;-73
2022/11/26 00:52:30;;;;;;;2.57;1.50;;;10.00;89.40;;;;;;4870614;29;20845;-74
2022/11/26 00:54:59;;;;;;;2.67;1.57;;;10.00;89.30;;;;;;4871233;29;20443;-73
2022/11/26 00:57:27;;;;;;;2.20;1.50;;;10.00;89.30;;;;;;4871371;29;20487;-73
2022/11/26 00:59:56;;;;;;;1.60;1.17;;;10.00;89.20;;;;;;4862970;29;20488;-73
2022/11/26 01:02:24;;;;;;;5.40;1.80;;;10.00;89.10;;;;;;4870659;29;20493;-75
2022/11/26 01:04:53;;;;;;;4.90;1.50;;;10.00;89.10;;;;;;4871443;29;20439;-74
2022/11/26 01:07:22;;;;;;;1.80;1.30;;;10.00;89.00;;;;;;4863557;29;20936;-74
2022/11/26 01:09:51;;;;;;;4.93;2.17;;;10.00;89.20;;;;;;4862110;29;20538;-72
2022/11/26 01:12:20;;;;;;;2.70;1.77;;;10.00;89.00;;;;;;4862735;29;20483;-73
2022/11/26 01:14:48;;;;;;;2.90;1.70;;;10.00;89.00;;;;;;4868370;29;21011;-73
2022/11/26 01:17:16;;;;;;;1.83;1.40;;;10.00;89.00;;;;;;4870708;29;20766;-73
2022/11/26 01:19:45;;;;;;;3.17;1.80;;;10.00;89.00;;;;;;4879545;29;20959;-75
2022/11/26 01:22:20;;;;;;;2.57;1.60;;;10.00;89.00;;;;;;4874350;29;20616;-74
2022/11/26 01:24:50;;;;;;;3.00;2.33;;;10.00;88.90;;;;;;4888749;29;20461;-74
2022/11/26 01:27:20;;;;;;;2.17;1.30;;;10.00;89.00;;;;;;4877004;29;21018;-74
2022/11/26 01:29:48;;;;;;;3.97;1.73;;;10.00;88.90;;;;;;4872529;29;20972;-74
2022/11/26 01:32:17;;;;;;;4.97;1.63;;;10.00;88.90;;;;;;4864511;29;21015;-74
2022/11/26 01:34:45;;;;;;;3.90;1.77;;;10.00;89.00;;;;;;4871132;29;20502;-74
2022/11/26 01:37:14;;;;;;;3.10;1.80;;;10.00;88.90;;;;;;4865478;29;20476;-73
2022/11/26 01:39:42;;;;;;;2.70;1.37;;;10.00;88.90;;;;;;4892017;29;20427;-73
2022/11/26 01:42:25;;;;;;;4.80;1.77;;;10.00;88.90;;;;;;4891656;29;20467;-74
2022/11/26 01:44:54;;;;;;;4.53;1.60;;;10.00;88.90;;;;;;4869821;29;20455;-73
2022/11/26 01:47:24;;;;;;;1.97;1.73;;;10.00;88.80;;;;;;4886635;29;20491;-74
2022/11/26 01:50:39;;;;;;;4.50;1.90;;;10.00;88.90;;;;;;4870609;29;20443;-74
2022/11/26 01:53:13;;;;;;;3.07;1.97;;;10.00;88.90;;;;;;4866659;29;20571;-74
2022/11/26 01:55:46;;;;;;;2.90;1.57;;;10.00;89.00;;;;;;4871115;29;20510;-74
2022/11/26 01:58:20;;;;;;;1.83;1.43;;;10.00;88.90;;;;;;4878258;29;21041;-74
2022/11/26 02:00:50;;;;;;;1.57;1.40;;;10.00;88.90;;;;;;4868169;29;20766;-74
2022/11/26 02:03:23;;;;;;;1.80;1.70;;;10.00;89.00;;;;;;4864780;29;21022;-73
2022/11/26 02:05:57;;;;;;;1.47;1.37;;;9.90;89.90;;;;;;4870324;29;20471;-73
2022/11/26 02:08:28;;;;;;;3.17;1.50;;;10.00;89.00;;;;;;4868799;29;21124;-74
2022/11/26 02:10:56;;;;;;;1.60;1.43;;;9.90;90.00;;;;;;4872226;29;20434;-74
2022/11/26 02:13:26;;;;;;;2.87;2.33;;;9.90;90.00;;;;;;4884645;29;20507;-74
2022/11/26 02:16:03;;;;;;;2.37;2.00;;;9.90;89.80;;;;;;4869316;29;20469;-73
2022/11/26 02:18:41;;;;;;;2.37;1.47;;;10.00;88.80;;;;;;4868155;29;21058;-74
2022/11/26 02:21:16;;;;;;;1.53;1.27;;;10.00;88.90;;;;;;4870017;29;20458;-74
2022/11/26 02:24:25;;;;;;;3.63;1.47;;;9.90;89.80;;;;;;4868460;29;20470;-73
2022/11/26 02:27:20;;;;;;;2.90;1.23;;;9.90;89.80;;;;;;4874828;29;20562;-73
2022/11/26 02:30:06;;;;;;;1.63;1.17;;;9.90;89.70;;;;;;4867210;29;20924;-74
2022/11/26 02:32:47;;;;;;;1.47;1.37;;;9.90;89.60;;;;;;4869888;29;20561;-73
2022/11/26 02:35:22;;;;;;;2.63;1.20;;;10.00;88.60;;;;;;4863408;29;20503;-73
2022/11/26 02:37:55;;;;;;;2.50;1.50;;;9.90;89.60;;;;;;4868679;29;20593;-73
2022/11/26 02:40:25;;;;;;;2.87;1.57;;;9.90;89.60;;;;;;4864724;29;20450;-74
2022/11/26 02:42:54;;;;;;;1.83;1.10;;;9.90;89.60;;;;;;4876408;29;20571;-74
2022/11/26 02:45:27;;;;;;;2.50;1.23;;;9.90;89.50;;;;;;4873330;29;20557;-75
2022/11/26 02:47:59;;;;;;;1.70;1.13;;;9.90;89.60;;;;;;4869937;29;20467;-73
2022/11/26 02:50:33;;;;;;;1.33;1.23;;;9.90;89.50;;;;;;4869379;29;20972;-76
2022/11/26 02:53:03;;;;;;;1.90;1.30;;;10.00;88.60;;;;;;4864903;29;20482;-74
2022/11/26 02:55:35;;;;;;;7.43;1.63;;;9.90;89.40;;;;;;4864626;29;20538;-73
2022/11/26 02:58:05;;;;;;;1.60;1.40;;;9.90;89.50;;;;;;4871611;29;20478;-73
2022/11/26 03:00:41;;;;;;;1.20;1.10;;;9.90;89.40;;;;;;4866124;29;20488;-68
2022/11/26 03:03:21;;;;;;;2.50;1.60;;;9.90;89.40;;;;;;4871003;29;20520;-70
2022/11/26 03:05:53;;;;;;;1.47;1.17;;;9.90;89.40;;;;;;4878402;29;20558;-71
2022/11/26 03:08:22;;;;;;;2.23;1.27;;;9.90;89.30;;;;;;4869934;29;21018;-69
2022/11/26 03:10:51;;;;;;;1.60;1.00;;;9.90;89.40;;;;;;4869933;29;21057;-70
2022/11/26 03:13:19;;;;;;;2.70;1.20;;;9.90;89.30;;;;;;4875507;29;20502;-70
2022/11/26 03:15:49;;;;;;;2.40;1.20;;;9.90;89.20;;;;;;4869408;29;20554;-70
2022/11/26 03:18:17;;;;;;;2.03;1.13;;;9.90;89.20;;;;;;4864289;29;20494;-70
2022/11/26 03:20:46;;;;;;;1.67;1.47;;;9.90;89.10;;;;;;4872278;29;21026;-68
2022/11/26 03:23:19;;;;;;;1.37;1.27;;;9.90;89.00;;;;;;4883834;29;20996;-69
2022/11/26 03:25:47;;;;;;;2.50;1.20;;;9.90;88.90;;;;;;4869111;29;20485;-71
2022/11/26 03:28:16;;;;;;;1.80;1.50;;;9.90;88.90;;;;;;4859233;29;20506;-69
2022/11/26 03:30:44;;;;;;;1.83;1.20;;;9.90;88.90;;;;;;4862828;29;20542;-69
2022/11/26 03:33:14;;;;;;;2.70;1.60;;;9.90;88.90;;;;;;4870297;29;20571;-69
2022/11/26 03:35:42;;;;;;;1.43;1.30;;;9.90;88.90;;;;;;4875207;29;20470;-68
2022/11/26 03:38:11;;;;;;;1.50;1.20;;;9.90;88.80;;;;;;4875862;29;20486;-68
2022/11/26 03:40:39;;;;;;;1.60;1.10;;;9.90;88.90;;;;;;4875609;29;20479;-70
2022/11/26 03:43:07;;;;;;;2.83;1.40;;;9.90;88.90;;;;;;4868709;29;20566;-68
2022/11/26 03:45:36;;;;;;;3.07;1.20;;;9.90;88.90;;;;;;4889274;29;20513;-68
2022/11/26 03:48:05;;;;;;;2.20;1.10;;;9.80;88.70;;;;;;4881349;29;20475;-68
2022/11/26 03:50:38;;;;;;;2.00;1.53;;;9.90;88.90;;;;;;4875156;29;20845;-68
2022/11/26 03:53:06;;;;;;;1.40;1.20;;;9.90;88.90;;;;;;4870897;29;20518;-70
2022/11/26 03:55:35;;;;;;;2.60;1.30;;;9.80;88.80;;;;;;4875249;29;20466;-69
2022/11/26 03:58:03;;;;;;;2.57;1.40;;;9.90;88.80;;;;;;4878228;29;20936;-70
2022/11/26 04:00:32;;;;;;;1.77;1.10;;;9.90;88.80;;;;;;4866034;29;20530;-69
2022/11/26 04:03:00;;;;;;;2.27;1.30;;;9.80;88.70;;;;;;4857036;29;20938;-69
2022/11/26 04:05:28;;;;;;;2.27;1.00;;;9.80;88.10;;;;;;4872399;29;20984;-70
2022/11/26 04:07:58;;;;;;;1.57;1.37;;;9.80;88.40;;;;;;4870694;29;20471;-68
2022/11/26 04:10:27;;;;;;;1.30;1.20;;;9.80;88.50;;;;;;4871035;29;20458;-68
2022/11/26 04:12:55;;;;;;;1.50;1.40;;;9.80;88.40;;;;;;4871270;29;20475;-70
2022/11/26 04:15:24;;;;;;;1.53;1.20;;;9.80;88.30;;;;;;4863172;29;20585;-69
2022/11/26 04:17:52;;;;;;;2.43;1.60;;;9.80;88.30;;;;;;4857485;29;21145;-69
2022/11/26 04:20:20;;;;;;;2.63;1.30;;;9.80;88.40;;;;;;4871487;29;20963;-68
2022/11/26 04:22:49;;;;;;;1.33;1.13;;;9.80;88.40;;;;;;4871200;29;20490;-69
2022/11/26 04:25:19;;;;;;;1.53;1.40;;;9.80;88.50;;;;;;4879441;29;20436;-68
2022/11/26 04:27:47;;;;;;;2.73;1.63;;;9.80;88.40;;;;;;4870564;29;20486;-68
2022/11/26 04:30:16;;;;;;;1.37;1.27;;;9.80;88.10;;;;;;4863494;29;20542;-69
2022/11/26 04:32:44;;;;;;;1.47;0.80;;;9.80;87.80;;;;;;4878722;29;20486;-68
2022/11/26 04:35:13;;;;;;;3.53;0.93;;;9.80;87.80;;;;;;4871231;29;20553;-70
2022/11/26 04:37:41;;;;;;;1.50;1.30;;;9.80;87.90;;;;;;4865723;29;20491;-73
2022/11/26 04:40:11;;;;;;;4.90;2.00;;;9.80;87.70;;;;;;4872003;29;20979;-72
2022/11/26 04:42:41;;;;;;;1.83;1.73;;;9.80;88.90;;;;;;4871127;29;20506;-75
2022/11/26 04:45:10;;;;;;;1.57;1.17;;;9.80;87.80;;;;;;4879485;29;20542;-72
2022/11/26 04:47:39;;;;;;;1.43;1.17;;;9.80;87.70;;;;;;4870929;29;20495;-74
2022/11/26 04:50:11;;;;;;;2.03;1.20;;;9.80;87.90;;;;;;4878109;29;20976;-73
2022/11/26 04:52:39;;;;;;;2.10;1.17;;;9.70;88.00;;;;;;4870810;29;20511;-72
2022/11/26 04:55:08;;;;;;;1.83;1.00;;;9.80;88.10;;;;;;4867884;29;21234;-74
2022/11/26 04:57:37;;;;;;;1.10;1.00;;;9.80;88.00;;;;;;4882660;29;20459;-74
2022/11/26 05:00:08;;;;;;;4.67;1.73;;;9.70;88.00;;;;;;4861950;29;20451;-74
2022/11/26 05:02:36;;;;;;;1.50;1.40;;;9.70;88.00;;;;;;4863343;29;20558;-74
2022/11/26 05:05:05;;;;;;;2.93;1.23;;;9.80;87.90;;;;;;4867814;29;20443;-74
2022/11/26 05:07:34;;;;;;;1.33;1.17;;;9.80;87.70;;;;;;4870509;29;20470;-74
2022/11/26 05:10:03;;;;;;;2.27;1.20;;;9.70;88.90;;;;;;4871955;29;20431;-75
2022/11/26 05:12:31;;;;;;;3.10;1.30;;;9.70;87.60;;;;;;4871151;29;20514;-74
2022/11/26 05:15:00;;;;;;;2.60;1.40;;;9.70;87.60;;;;;;4880409;29;20490;-74
2022/11/26 05:17:30;;;;;;;3.73;1.50;;;9.70;87.60;;;;;;4875405;29;20574;-73
2022/11/26 05:19:58;;;;;;;2.03;1.13;;;9.70;87.80;;;;;;4878557;29;20440;-73
2022/11/26 05:22:27;;;;;;;3.10;2.07;;;9.70;87.60;;;;;;4867402;29;20512;-73
2022/11/26 05:24:55;;;;;;;1.30;1.20;;;9.70;87.70;;;;;;4885680;29;20469;-74
2022/11/26 05:27:24;;;;;;;3.77;1.53;;;9.70;87.80;;;;;;4871370;29;20479;-74
2022/11/26 05:29:52;;;;;;;3.22;1.10;;;9.70;87.60;;;;;;4868576;29;20461;-74
2022/11/26 05:32:20;;;;;;;1.47;1.10;;;9.70;87.60;;;;;;4871566;29;20199;-75
2022/11/26 05:34:50;;;;;;;1.80;1.30;;;9.70;87.50;;;;;;4871978;29;20570;-74
2022/11/26 05:37:25;;;;;;;2.53;1.70;;;9.70;87.60;;;;;;4870094;29;20475;-74
2022/11/26 05:39:54;;;;;;;1.87;1.40;;;9.70;87.70;;;;;;4869608;29;20459;-74
2022/11/26 05:42:22;;;;;;;3.57;1.80;;;9.70;87.50;;;;;;4863676;29;20728;-73
2022/11/26 05:44:50;;;;;;;2.10;1.37;;;9.70;87.70;;;;;;4868719;29;20547;-73
2022/11/26 05:47:19;;;;;;;2.00;1.30;;;9.70;87.60;;;;;;4870270;29;20474;-75
2022/11/26 05:49:47;;;;;;;1.93;1.33;;;9.70;87.50;;;;;;4872960;29;20512;-75
2022/11/26 05:52:17;;;;;;;1.40;0.97;;;9.70;87.40;;;;;;4886654;29;20519;-73
2022/11/26 05:54:45;;;;;;;2.50;1.70;;;9.70;87.70;;;;;;4863102;29;20590;-73
2022/11/26 05:57:14;;;;;;;2.47;1.30;;;9.70;87.50;;;;;;4870096;29;20490;-74
2022/11/26 05:59:42;;;;;;;2.40;1.80;;;9.60;87.60;;;;;;4861557;29;20460;-75
2022/11/26 06:02:11;;;;;;;2.40;1.27;;;9.60;87.40;;;;;;4864075;29;20785;-74
2022/11/26 06:04:39;;;;;;;2.00;1.30;;;9.60;87.60;;;;;;4870298;29;20455;-74
2022/11/26 06:07:08;;;;;;;2.67;1.40;;;9.60;87.60;;;;;;4866557;29;20486;-74
2022/11/26 06:09:38;;;;;;;1.70;1.30;;;9.60;87.70;;;;;;4866884;29;20479;-75
2022/11/26 06:12:07;;;;;;;1.83;1.10;;;9.60;87.70;;;;;;4869798;29;21023;-73
2022/11/26 06:14:35;;;;;;;3.10;1.77;;;9.60;87.70;;;;;;4873958;29;20527;-73
2022/11/26 06:17:10;;;;;;;1.70;1.40;;;9.60;87.60;;;;;;4870060;29;20478;-74
2022/11/26 06:19:41;;;;;;;2.47;1.40;;;9.60;89.00;;;;;;4869645;29;20550;-74
2022/11/26 06:22:10;;;;;;;1.27;1.10;;;9.60;87.80;;;;;;4869635;29;20447;-74
2022/11/26 06:24:39;;;;;;;3.80;1.40;;;9.60;87.90;;;;;;4882018;29;20757;-74
2022/11/26 06:27:08;;;;;;;2.80;1.20;;;9.60;87.80;;;;;;4857465;29;20885;-74
2022/11/26 06:29:36;;;;;;;2.73;1.30;;;9.60;87.90;;;;;;4868684;29;20463;-73
2022/11/26 06:32:05;;;;;;;2.30;1.23;;;9.60;89.20;;;;;;4884179;29;20467;-74
2022/11/26 06:34:33;;;;;;;1.97;1.77;;;9.60;88.00;;;;;;4875054;29;20498;-75
2022/11/26 06:37:02;;;;;;;1.83;1.40;;;9.60;87.90;;;;;;4869065;29;20467;-75
2022/11/26 06:39:31;;;;;;;1.70;1.33;;;9.60;87.80;;;;;;4869243;29;20539;-74
2022/11/26 06:42:00;;;;;;;1.70;1.60;;;9.60;87.80;;;;;;4869025;29;20266;-76
2022/11/26 06:44:29;;;;;;;1.87;1.40;;;9.60;87.90;;;;;;4862822;29;20464;-74
2022/11/26 06:46:57;;;;;;;1.60;1.50;;;9.60;87.80;;;;;;4869748;29;20482;-72
2022/11/26 06:49:26;;;;;;;2.67;1.70;;;9.60;87.80;;;;;;4873404;29;20526;-74
2022/11/26 06:51:54;;;;;;;1.60;1.37;;;9.60;87.80;;;;;;4879947;29;20454;-74
2022/11/26 06:54:22;;;;;;;2.30;1.50;;;9.60;87.70;;;;;;4874790;29;20459;-74
2022/11/26 06:56:51;;;;;;;3.10;1.63;;;9.60;87.80;;;;;;4869933;29;20467;-72
2022/11/26 06:59:21;;;;;;;1.60;1.27;;;9.60;87.80;;;;;;4868767;29;20447;-67
2022/11/26 07:01:49;;;;;;;2.73;1.20;;;9.60;87.80;;;;;;4865332;29;20456;-73
2022/11/26 07:04:18;;;;;;;1.30;1.03;;;9.60;87.90;;;;;;4869045;29;20551;-72
2022/11/26 07:06:46;;;;;;;1.90;1.43;;;9.60;89.10;;;;;;4876709;29;20522;-73
2022/11/26 07:09:15;;;;;;;3.13;1.80;;;9.50;88.30;;;;;;4871505;29;21136;-74
2022/11/26 07:11:44;;;;;;;3.15;1.75;;;9.50;87.50;;;;;;4869688;29;20931;-74
2022/11/26 07:14:13;;;;;;;2.33;1.60;;;9.50;87.50;;;;;;4870429;29;20579;-75
2022/11/26 07:16:42;;;;;;;1.97;1.57;;;9.50;88.40;;;;;;4865956;29;20754;-73
2022/11/26 07:19:13;;;;;;;1.50;1.40;;;9.50;87.10;;;;;;4869380;29;20443;-73
2022/11/26 07:21:46;;;;;;;1.87;1.00;;;9.50;88.40;;;;;;4874475;29;20534;-67
2022/11/26 07:24:17;;;;;;;1.40;0.87;;;9.50;87.50;;;;;;4918046;23;20497;-51
2022/11/26 07:26:45;;;;;;;1.70;1.37;;;9.50;87.30;;;;;;4909036;29;20469;-49
2022/11/26 07:29:14;;;;;;;1.77;1.13;;;9.50;87.50;;;;;;4901081;29;20557;-52
2022/11/26 07:31:44;;;;;;;2.77;1.50;;;9.50;87.30;;;;;;4908127;29;20453;-50
2022/11/26 07:34:13;;;;;;;1.73;1.40;;;9.50;87.40;;;;;;4916518;29;20461;-53
2022/11/26 07:36:42;;;;;;;1.63;1.53;;;9.50;87.10;;;;;;4919148;29;20460;-55
2022/11/26 07:39:12;;;;;;;1.40;1.30;;;9.50;87.20;;;;;;4923810;29;20504;-51
2022/11/26 07:41:41;;;;;;;1.73;1.20;;;9.50;88.60;;;;;;4925427;29;20960;-51
2022/11/26 07:44:13;;;;;;;3.80;1.30;;;9.50;87.40;;;;;;4920575;29;20814;-51
2022/11/26 07:46:41;;;;;;;1.70;1.27;;;9.50;87.10;;;;;;4939227;28;20976;-53
2022/11/26 07:49:12;;;;;;;1.60;1.23;;;9.50;87.30;;;;;;4924580;29;20955;-52
2022/11/26 07:51:40;;;;;;;1.30;0.97;;;9.50;87.30;;;;;;4916782;29;20537;-56
2022/11/26 07:54:09;;;;;;;3.40;1.40;;;9.50;87.50;;;;;;4919897;29;20477;-54
2022/11/26 07:56:38;;;;;;;2.20;1.27;;;9.50;87.50;;;;;;4922462;29;21032;-51
2022/11/26 07:59:07;;;;;;;1.48;1.30;;;9.50;87.50;;;;;;4939741;28;20453;-52
2022/11/26 08:01:37;;;;;;;2.00;1.27;;;9.50;87.40;;;;;;4917838;29;20215;-51
2022/11/26 08:04:07;;;;;;;3.80;1.57;;;9.50;87.50;;;;;;4914875;29;20473;-51
2022/11/26 08:06:37;;;;;;;1.52;1.15;;;9.50;87.40;;;;;;4924356;29;20437;-52
2022/11/26 08:09:06;;;;;;;1.63;1.10;;;9.50;87.40;;;;;;4920330;29;20232;-53
2022/11/26 08:11:35;;;;;;;1.33;1.10;;;9.50;87.50;;;;;;4923617;29;21120;-54
2022/11/26 08:14:05;;;;;;;2.20;1.57;;;9.40;87.40;;;;;;4941285;28;20477;-52
2022/11/26 08:16:34;;;;;;;1.33;1.10;;;9.40;87.50;;;;;;4922939;29;21318;-51
2022/11/26 08:19:05;;;;;;;3.50;1.27;;;9.50;87.60;;;;;;4922559;29;20559;-53
2022/11/26 08:21:34;;;;;;;1.90;1.50;;;9.40;87.50;;;;;;4916496;29;20584;-51
2022/11/26 08:24:05;;;;;;;1.25;1.15;;;9.50;87.60;;;;;;4923343;29;20229;-54
2022/11/26 08:26:34;;;;;;;1.70;1.27;;;9.50;87.60;;;;;;4928163;29;20216;-52
2022/11/26 08:29:11;;;;;;;1.23;1.07;;;9.50;87.60;;;;;;4924522;29;20505;-51
2022/11/26 08:31:40;;;;;;;5.07;1.90;;;9.50;87.70;;;;;;4928569;29;20808;-53
2022/11/26 08:34:15;;;;;;;1.90;1.13;;;9.50;87.70;;;;;;4928943;29;20482;-51
2022/11/26 08:36:44;;;;;;;1.70;0.97;;;9.50;87.70;;;;;;4944265;28;20212;-52
2022/11/26 08:39:18;;;;;;;3.60;1.70;;;9.50;87.70;;;;;;4924092;29;20503;-54
2022/11/26 08:41:47;;;;;;;2.87;1.20;;;9.40;88.90;;;;;;4930156;29;21041;-56
2022/11/26 08:44:20;;;;;;;1.60;1.40;;;9.50;87.70;;;;;;4920073;29;20468;-53
2022/11/26 08:46:49;;;;;;;1.60;1.33;;;9.50;87.70;;;;;;4922360;29;20462;-51
2022/11/26 08:49:18;;;;;;;1.65;1.20;;;9.40;87.60;;;;;;4923028;29;20868;-51
2022/11/26 08:51:46;;;;;;;1.00;0.90;;;9.50;87.70;;;;;;4929144;29;20220;-53
2022/11/26 08:54:15;;;;;;;1.60;1.30;;;9.50;87.70;;;;;;4922243;29;20552;-51
2022/11/26 08:56:45;;;;;;;1.93;1.70;;;9.50;87.70;;;;;;4912026;29;20473;-53
2022/11/26 08:59:15;;;;;;;1.47;1.33;;;9.50;87.60;;;;;;4923845;29;20446;-53
2022/11/26 09:01:43;;;;;;;1.57;1.30;;;9.50;87.70;;;;;;4904386;29;21052;-52
2022/11/26 09:04:12;;;;;;;2.00;1.50;;;9.50;87.60;;;;;;4919676;29;20453;-53
2022/11/26 09:06:41;;;;;;;3.63;1.17;;;9.50;87.60;;;;;;4910975;29;20429;-53
2022/11/26 09:09:13;;;;;;;1.90;1.20;;;9.50;87.70;;;;;;4924509;29;20472;-55
2022/11/26 09:11:46;;;;;;;2.30;1.17;;;9.50;87.70;;;;;;4922721;29;20501;-54
2022/11/26 09:14:16;;;;;;;2.10;1.20;;;9.50;87.50;;;;;;4921617;29;20476;-51
2022/11/26 09:16:45;;;;;;;1.20;0.80;;;9.50;87.50;;;;;;4914520;29;20476;-52
2022/11/26 09:19:15;;;;;;;2.30;1.20;;;9.50;87.50;;;;;;4926608;29;20441;-53
2022/11/26 09:21:44;;;;;;;1.50;1.20;;;9.50;87.30;;;;;;4914411;29;20441;-50
2022/11/26 09:24:13;;;;;;;1.43;1.33;;;9.50;87.40;;;;;;4924503;29;20491;-51
2022/11/26 09:26:41;;;;;;;2.43;1.20;;;9.50;88.60;;;;;;4920779;29;20448;-54
2022/11/26 09:29:14;;;;;;;1.80;1.50;;;9.50;87.30;;;;;;4927985;29;20448;-53
2022/11/26 09:31:43;;;;;;;1.10;1.00;;;9.50;87.30;;;;;;4922005;29;20475;-52
2022/11/26 09:34:32;;;;;;;1.67;1.20;;;9.50;87.30;;;;;;4919755;29;20457;-54
2022/11/26 09:37:01;;;;;;;0.90;0.70;;;9.50;87.40;;;;;;4915718;29;20929;-49
2022/11/26 09:39:30;;;;;;;3.27;1.00;;;9.50;87.30;;;;;;4919606;29;20824;-52
2022/11/26 09:42:04;;;;;;;1.60;1.20;;;9.50;87.30;;;;;;4920422;29;20559;-53
2022/11/26 09:44:46;;;;;;;2.53;1.30;;;9.50;87.30;;;;;;4921838;29;20524;-50
2022/11/26 09:47:18;;;;;;;1.70;1.23;;;9.50;87.30;;;;;;4920537;29;20201;-54
2022/11/26 09:49:57;;;;;;;1.43;1.17;;;9.50;87.30;;;;;;4911925;29;20430;-51
2022/11/26 09:52:30;;;;;;;1.70;1.10;;;9.50;87.50;;;;;;4923702;29;20469;-50
2022/11/26 09:55:10;;;;;;;1.33;0.93;;;9.50;87.40;;;;;;4926265;29;20445;-54
2022/11/26 09:57:42;;;;;;;1.60;0.90;;;9.50;87.30;;;;;;4926305;29;20527;-52
2022/11/26 10:00:23;;;;;;;2.70;1.40;;;9.50;87.30;;;;;;4928780;29;20452;-51
2022/11/26 10:02:53;;;;;;;1.67;1.00;;;9.50;87.30;;;;;;4919648;29;20916;-51
2022/11/26 10:05:31;;;;;;;3.17;1.05;;;9.50;87.30;;;;;;4929821;29;20448;-51
2022/11/26 10:08:10;;;;;;;1.23;0.97;;;9.50;87.30;;;;;;4917940;29;20288;-54
2022/11/26 10:10:48;;;;;;;1.37;0.73;;;9.50;87.30;;;;;;4928550;29;20440;-56
2022/11/26 10:13:23;;;;;;;0.90;0.90;;;9.50;87.30;;;;;;4938577;28;20468;-50
2022/11/26 10:15:59;;;;;;;1.13;1.03;;;9.50;87.40;;;;;;4928713;29;20559;-52
2022/11/26 10:18:37;;;;;;;1.47;1.03;;;9.50;87.30;;;;;;4914709;29;20996;-50
2022/11/26 10:21:15;;;;;;;1.63;1.10;;;9.50;87.30;;;;;;4937572;29;20940;-51
2022/11/26 10:24:04;;;;;;;1.80;1.10;;;9.50;87.50;;;;;;4913541;29;21098;-52
2022/11/26 10:26:37;;;;;;;1.53;0.97;;;9.50;87.30;;;;;;4925738;29;20980;-54
2022/11/26 10:29:18;;;;;;;1.20;1.10;;;9.50;87.30;;;;;;4916618;29;20857;-50
2022/11/26 10:31:50;;;;;;;1.40;1.20;;;9.40;87.30;;;;;;4920389;29;20509;-51
2022/11/26 10:34:21;;;;;;;1.58;0.82;;;9.50;87.30;;;;;;4920162;29;21071;-51
2022/11/26 10:36:51;;;;;;;1.07;0.97;;;9.40;87.30;;;;;;4928233;29;20377;-54
2022/11/26 10:39:20;;;;;;;1.27;1.17;;;9.40;87.30;;;;;;4928043;29;20487;-53
2022/11/26 10:41:49;;;;;;;1.03;0.90;;;9.50;87.40;;;;;;4921915;29;20449;-51
2022/11/26 10:44:32;;;;;;;2.15;1.42;;;9.50;87.30;;;;;;4925063;29;20464;-52
2022/11/26 10:47:21;;;;;;;1.50;1.00;;;9.50;87.80;;;;;;4925944;29;20225;-57
2022/11/26 10:49:50;;;;;;;1.40;1.10;;;9.50;87.30;;;;;;4921035;29;20580;-51
2022/11/26 10:52:23;;;;;;;1.23;0.87;;;9.50;87.30;;;;;;4928350;29;20224;-50
2022/11/26 10:55:16;;;;;;;2.08;0.93;;;9.50;87.30;;;;;;4926659;29;20876;-50
2022/11/26 10:57:49;;;;;;;1.50;1.40;;;9.40;87.30;;;;;;4925986;29;20220;-51
2022/11/26 11:00:33;;;;;;;1.77;1.30;;;9.40;87.30;;;;;;4916506;29;20933;-52
2022/11/26 11:03:06;;;;;;;1.33;0.90;;;9.50;87.30;;;;;;4911994;29;20879;-54
2022/11/26 11:05:35;;;;;;;1.95;1.48;;;9.40;87.20;;;;;;4920922;29;20445;-53
2022/11/26 11:08:03;;;;;;;2.60;1.30;;;9.40;87.30;;;;;;4922737;29;20224;-53
2022/11/26 11:10:33;;;;;;;2.77;1.03;;;9.40;87.30;;;;;;4921071;29;20484;-53
2022/11/26 11:13:09;;;;;;;1.33;1.23;;;9.40;87.30;;;;;;4909251;29;20492;-51
2022/11/26 11:15:40;;;;;;;2.90;1.30;;;9.40;87.30;;;;;;4917900;29;20512;-54
2022/11/26 11:18:19;;;;;;;1.80;0.80;;;9.40;88.50;;;;;;4927085;29;20995;-53
2022/11/26 11:20:56;;;;;;;1.03;0.93;;;9.40;87.30;;;;;;4927397;29;20453;-55
2022/11/26 11:23:27;;;;;;;1.37;0.80;;;9.40;87.30;;;;;;4919885;29;20484;-52
2022/11/26 11:26:20;;;;;;;0.90;0.63;;;9.40;87.30;;;;;;4920966;29;20445;-50
2022/11/26 11:28:51;;;;;;;1.50;1.20;;;9.40;87.40;;;;;;4923647;29;20572;-51
2022/11/26 11:31:21;;;;;;;1.63;1.10;;;9.40;87.30;;;;;;4927940;29;20519;-52
2022/11/26 11:34:11;;;;;;;2.50;1.00;;;9.40;87.30;;;;;;4926123;29;20522;-49
2022/11/26 11:36:40;;;;;;;2.73;1.43;;;9.40;87.40;;;;;;4917989;29;20541;-51
2022/11/26 11:39:28;;;;;;;1.07;0.97;;;9.40;87.40;;;;;;4921253;29;20484;-52
2022/11/26 11:41:57;;;;;;;1.47;0.90;;;9.40;88.50;;;;;;4917159;29;20931;-53
2022/11/26 11:44:37;;;;;;;1.20;0.90;;;9.40;87.30;;;;;;4911187;29;20583;-52
2022/11/26 11:47:27;;;;;;;2.87;0.97;;;9.40;87.30;;;;;;4909952;29;20483;-51
2022/11/26 11:50:11;;;;;;;1.67;1.23;;;9.40;87.30;;;;;;4924811;29;20433;-52
2022/11/26 11:52:50;;;;;;;1.30;0.90;;;9.40;87.30;;;;;;4930677;29;20468;-53
2022/11/26 11:55:27;;;;;;;2.23;0.90;;;9.40;87.30;;;;;;4922309;29;20443;-56
2022/11/26 11:58:10;;;;;;;1.87;1.20;;;9.40;87.30;;;;;;4926376;28;20486;-52
2022/11/26 12:00:48;;;;;;;1.23;1.10;;;9.40;87.30;;;;;;4916053;29;20446;-53
2022/11/26 12:03:48;;;;;;;1.40;1.00;;;9.40;87.30;;;;;;4938048;28;20516;-52
2022/11/26 12:06:32;;;;;;;1.20;1.10;;;9.40;87.30;;;;;;4940675;28;20668;-55
2022/11/26 12:09:11;;;;;;;1.53;0.90;;;9.40;87.30;;;;;;4935449;29;20481;-53
2022/11/26 12:11:50;;;;;;;1.60;1.10;;;9.40;87.40;;;;;;4927153;29;20456;-53
2022/11/26 12:14:23;;;;;;;2.35;0.90;;;9.40;87.30;;;;;;4930484;29;20576;-51
2022/11/26 12:16:55;;;;;;;1.40;1.00;;;9.40;87.40;;;;;;4922857;29;20731;-50
2022/11/26 12:19:34;;;;;;;1.30;1.08;;;9.40;87.40;;;;;;4912703;29;20568;-52
2022/11/26 12:22:10;;;;;;;0.90;0.60;;;9.40;87.40;;;;;;4942477;28;20201;-52
2022/11/26 12:24:45;;;;;;;2.23;1.23;;;9.40;87.80;;;;;;4928354;29;20464;-51
2022/11/26 12:27:24;;;;;;;2.03;1.20;;;9.40;87.40;;;;;;4920886;29;20550;-52
2022/11/26 12:29:57;;;;;;;1.30;1.10;;;9.40;87.40;;;;;;4921503;29;20450;-53
2022/11/26 12:32:34;;;;;;;4.53;1.27;;;9.40;87.40;;;;;;4929226;29;20192;-53
2022/11/26 12:35:07;;;;;;;4.43;1.30;;;9.40;89.40;;;;;;4929242;29;20476;-52
2022/11/26 12:37:41;;;;;;;3.03;1.15;;;9.40;90.20;;;;;;4930781;29;20224;-52
2022/11/26 12:40:19;;;;;;;3.07;1.30;;;9.40;90.00;;;;;;4926693;29;20292;-50
2022/11/26 12:42:55;;;;;;;4.07;1.33;;;9.50;89.80;;;;;;4924460;29;20480;-53
2022/11/26 12:45:38;;;;;;;4.00;1.37;;;9.40;89.50;;;;;;4927564;29;20543;-52
2022/11/26 12:48:18;;;;;;;4.80;1.65;;;9.40;89.40;;;;;;4924548;29;20488;-51
2022/11/26 12:50:53;;;;;;;4.73;1.93;;;9.40;89.10;;;;;;4956938;29;20197;-54
2022/11/26 12:53:37;;;;;;;4.87;1.50;;;9.50;89.90;;;;;;4950259;28;21235;-55
2022/11/26 12:56:14;;;;;;;3.65;1.20;;;9.50;89.60;;;;;;4928559;29;20541;-52
2022/11/26 12:58:52;;;;;;;2.20;1.33;;;9.50;89.50;;;;;;4935135;29;20240;-52
2022/11/26 13:01:22;;;;;;;8.23;3.40;;;9.50;89.40;;;;;;4942210;29;20444;-53
2022/11/26 13:03:52;;;;;;;2.03;1.20;;;9.50;89.40;;;;;;4940440;29;20540;-53
2022/11/26 13:07:01;;;;;;;2.73;1.27;;;9.40;89.10;;;;;;4938605;29;20947;-56
2022/11/26 13:09:50;;;;;;;9.80;1.60;;;9.40;89.20;;;;;;4937527;29;20464;-52
2022/11/26 13:12:27;;;;;;;5.95;1.35;;;9.40;89.40;;;;;;4938184;29;20205;-53
2022/11/26 13:15:02;;;;;;;5.60;1.97;;;9.40;89.20;;;;;;4927899;29;20203;-57
2022/11/26 13:17:38;;;;;;;4.47;1.37;;;9.40;89.20;;;;;;4923560;29;20488;-54
2022/11/26 13:20:17;;;;;;;2.07;1.57;;;9.40;89.80;;;;;;4920410;29;20527;-54
2022/11/26 13:23:02;;;;;;;3.63;2.07;;;9.40;89.50;;;;;;4924286;29;20455;-53